TAF Text Data
IDs:
Format:
Raw Decoded Include METAR

Data at: 1426 UTC 11 Dec 2018

TAF for:KSBD (San Bernardino Intl, CA, US) issued at 1123 UTC 11 Dec 2018
Text:KSBD 111123Z 1112/1212 VRB05KT P6SM SCT200
Forecast period:1200 to 2100 UTC 11 December 2018
Forecast type:FROM: standard forecast or significant change
Winds:variable direction winds at 6 MPH (5 knots; 2.6 m/s)
Visibility:6 or more sm (10+ km)
Ceiling:at least 12,000 feet AGL
Clouds: scattered clouds at 20000 feet AGL
Text:FM112100 26007KT P6SM SKC
Forecast period:2100 UTC 11 December 2018 to 0200 UTC 12 December 2018
Forecast type:FROM: standard forecast or significant change
Winds:from the W (260 degrees) at 8 MPH (7 knots; 3.6 m/s)
Visibility:6 or more sm (10+ km)
Ceiling:at least 12,000 feet AGL
Clouds:clear skies
Text:FM120200 VRB04KT P6SM SCT200
Forecast period:0200 to 1200 UTC 12 December 2018
Forecast type:FROM: standard forecast or significant change
Winds:variable direction winds at 5 MPH (4 knots; 2.1 m/s)
Visibility:6 or more sm (10+ km)
Ceiling:at least 12,000 feet AGL
Clouds: scattered clouds at 20000 feet AGL